Date,TemperatureHighF,TemperatureAvgF,TemperatureLowF,DewpointHighF,DewpointAvgF,DewpointLowF,HumidityHigh,HumidityAvg,HumidityLow,PressureMaxIn,PressureMinIn,WindSpeedMaxMPH,WindSpeedAvgMPH,GustSpeedMaxMPH,PrecipitationSumIn
2013-1-1,83,75,70,68,62,57,79,66,46,0.00,40.00,7,4,16,0.00
2013-1-2,79,76,72,66,59,49,73,58,39,0.00,40.00,13,6,25,0.00
2013-1-3,79,75,71,67,60,52,71,61,46,0.00,40.00,9,5,20,0.00
2013-1-4,82,76,71,68,60,54,71,58,43,0.00,40.00,23,8,46,0.00
2013-1-5,83,78,75,61,51,35,55,40,21,0.00,40.00,24,16,45,0.00
2013-1-6,78,76,70,64,57,35,67,53,21,0.00,40.00,17,7,34,0.00
2013-1-7,79,75,72,64,59,53,64,57,50,0.00,40.00,16,8,33,0.00
2013-1-8,79,75,70,64,58,49,70,56,40,0.00,40.00,16,7,38,0.00
2013-1-9,78,75,71,63,60,56,68,60,51,0.00,40.00,19,6,36,0.00
2013-1-10,80,75,72,64,58,52,68,57,43,0.00,40.00,19,8,36,0.00
2013-1-11,80,75,68,64,58,50,69,57,35,0.00,40.00,7,4,23,0.00
2013-1-12,77,73,68,65,59,50,70,61,50,0.00,40.00,7,4,12,0.00
2013-1-13,79,74,69,66,59,51,76,61,46,0.00,40.00,8,4,16,0.00
2013-1-14,79,74,68,68,62,54,82,67,56,0.00,40.00,8,4,18,0.01
2013-1-15,77,74,70,69,66,64,90,75,65,0.00,40.00,7,3,15,0.01
2013-1-16,79,74,69,66,62,56,81,66,53,0.00,40.00,9,4,14,0.00
2013-1-17,77,71,65,62,57,50,70,60,51,0.00,40.00,9,5,14,0.00
2013-1-18,78,72,66,61,56,50,67,58,49,0.00,40.00,7,5,12,0.00
2013-1-19,84,74,66,55,46,33,61,39,17,0.00,40.00,9,5,24,0.00
2013-1-20,81,72,64,58,48,36,59,43,31,0.00,40.00,8,4,14,0.00
2013-1-21,79,72,64,63,58,52,69,61,48,0.00,40.00,7,4,14,0.00
2013-1-22,79,74,69,63,58,54,66,59,45,0.00,40.00,8,4,19,0.00
2013-1-23,81,73,67,64,58,52,69,61,38,0.00,40.00,17,6,31,0.00
2013-1-24,78,73,68,64,59,51,69,61,49,0.00,40.00,9,5,15,0.00
2013-1-25,78,73,67,64,60,54,72,63,55,0.00,40.00,8,4,12,0.00
2013-1-26,78,73,68,64,59,52,74,62,51,0.00,40.00,8,4,13,0.00
2013-1-27,78,73,68,62,56,50,62,56,43,0.00,40.00,9,6,15,0.00
2013-1-28,79,73,69,65,59,54,66,61,48,0.00,40.00,8,4,14,0.00
2013-1-29,78,73,69,67,62,55,91,69,55,0.00,40.00,6,4,12,0.03
2013-1-30,77,72,67,67,65,62,95,78,61,0.00,40.00,8,4,15,0.15
2013-1-31,78,74,67,67,63,59,78,69,60,0.00,40.00,6,4,9,0.02